<?xml version="1.0" encoding="UTF-8" standalone="no" ?>
<gpx xmlns="http://www.topografix.com/GPX/1/1" xmlns:xsi="http://www.w3.org/2001/XMLSchema-instance" xsi:schemaLocation="http://www.topografix.com/GPX/1/1 http://www.topografix.com/GPX/1/1/gpx.xsd" version="1.1" creator="VisuGPX - https://www.visugpx.com">
  <metadata>
    <name>27-05-2017 Dinant - Ciney (Bel)</name>
    <desc><![CDATA[Itinéraire de détente en vélo électrique (VTC). ]]></desc>
  </metadata>
  <trk>
    <name><![CDATA[Tracé 27 mai 2017 17:26:27]]></name>
    <trkseg>
      <trkpt lat="50.25848" lon="4.9232">
        <ele>181.56262110229</ele>
        <time>2017-05-27T15:26:27Z</time>
      </trkpt>
      <trkpt lat="50.25851" lon="4.92308">
        <ele>200.96501337088</ele>
        <time>2017-05-27T15:27:13Z</time>
      </trkpt>
      <trkpt lat="50.25851" lon="4.9229">
        <ele>201.04016123308</ele>
        <time>2017-05-27T15:27:17Z</time>
      </trkpt>
      <trkpt lat="50.25849" lon="4.92274">
        <ele>200.96567004882</ele>
        <time>2017-05-27T15:27:22Z</time>
      </trkpt>
      <trkpt lat="50.25843" lon="4.92261">
        <ele>200.92015737175</ele>
        <time>2017-05-27T15:27:26Z</time>
      </trkpt>
      <trkpt lat="50.25829" lon="4.92268">
        <ele>200.86004076424</ele>
        <time>2017-05-27T15:27:31Z</time>
      </trkpt>
      <trkpt lat="50.25814" lon="4.92278">
        <ele>201.00020931298</ele>
        <time>2017-05-27T15:27:36Z</time>
      </trkpt>
      <trkpt lat="50.25803" lon="4.92287">
        <ele>201.19998344541</ele>
        <time>2017-05-27T15:27:40Z</time>
      </trkpt>
      <trkpt lat="50.25785" lon="4.92302">
        <ele>203.29464031646</ele>
        <time>2017-05-27T15:27:45Z</time>
      </trkpt>
      <trkpt lat="50.25775" lon="4.92316">
        <ele>205.30162312694</ele>
        <time>2017-05-27T15:27:49Z</time>
      </trkpt>
      <trkpt lat="50.25762" lon="4.92335">
        <ele>205.66037342958</ele>
        <time>2017-05-27T15:27:54Z</time>
      </trkpt>
      <trkpt lat="50.25753" lon="4.92349">
        <ele>205.72777102687</ele>
        <time>2017-05-27T15:27:58Z</time>
      </trkpt>
      <trkpt lat="50.25747" lon="4.92357">
        <ele>205.86866600833</ele>
        <time>2017-05-27T15:28:15Z</time>
      </trkpt>
      <trkpt lat="50.25741" lon="4.92374">
        <ele>205.40071731416</ele>
        <time>2017-05-27T15:28:20Z</time>
      </trkpt>
      <trkpt lat="50.25729" lon="4.92394">
        <ele>203.11890796863</ele>
        <time>2017-05-27T15:28:24Z</time>
      </trkpt>
      <trkpt lat="50.25716" lon="4.92419">
        <ele>202.3078098598</ele>
        <time>2017-05-27T15:28:28Z</time>
      </trkpt>
      <trkpt lat="50.25706" lon="4.92445">
        <ele>204.02275033936</ele>
        <time>2017-05-27T15:28:32Z</time>
      </trkpt>
      <trkpt lat="50.25695" lon="4.92472">
        <ele>205.51255581007</ele>
        <time>2017-05-27T15:28:36Z</time>
      </trkpt>
      <trkpt lat="50.25681" lon="4.92506">
        <ele>208.18853825753</ele>
        <time>2017-05-27T15:28:41Z</time>
      </trkpt>
      <trkpt lat="50.2567" lon="4.92534">
        <ele>208.77130764497</ele>
        <time>2017-05-27T15:28:45Z</time>
      </trkpt>
      <trkpt lat="50.25656" lon="4.9257">
        <ele>210.27837864527</ele>
        <time>2017-05-27T15:28:50Z</time>
      </trkpt>
      <trkpt lat="50.25645" lon="4.92598">
        <ele>211.89769517209</ele>
        <time>2017-05-27T15:28:54Z</time>
      </trkpt>
      <trkpt lat="50.25631" lon="4.92633">
        <ele>213.38738227692</ele>
        <time>2017-05-27T15:28:59Z</time>
      </trkpt>
      <trkpt lat="50.25619" lon="4.92662">
        <ele>213.87232347426</ele>
        <time>2017-05-27T15:29:03Z</time>
      </trkpt>
      <trkpt lat="50.25607" lon="4.92692">
        <ele>214.32413435561</ele>
        <time>2017-05-27T15:29:07Z</time>
      </trkpt>
      <trkpt lat="50.25593" lon="4.92726">
        <ele>215.13041917193</ele>
        <time>2017-05-27T15:29:12Z</time>
      </trkpt>
      <trkpt lat="50.25583" lon="4.92752">
        <ele>216.15456433047</ele>
        <time>2017-05-27T15:29:16Z</time>
      </trkpt>
      <trkpt lat="50.25571" lon="4.92781">
        <ele>217.35916148759</ele>
        <time>2017-05-27T15:29:20Z</time>
      </trkpt>
      <trkpt lat="50.25556" lon="4.92818">
        <ele>219.06738507558</ele>
        <time>2017-05-27T15:29:25Z</time>
      </trkpt>
      <trkpt lat="50.25545" lon="4.92847">
        <ele>219.38097520085</ele>
        <time>2017-05-27T15:29:29Z</time>
      </trkpt>
      <trkpt lat="50.25532" lon="4.92883">
        <ele>219.06152415993</ele>
        <time>2017-05-27T15:29:34Z</time>
      </trkpt>
      <trkpt lat="50.25521" lon="4.92911">
        <ele>219.83776812472</ele>
        <time>2017-05-27T15:29:38Z</time>
      </trkpt>
      <trkpt lat="50.25508" lon="4.92945">
        <ele>220.79930727188</ele>
        <time>2017-05-27T15:29:43Z</time>
      </trkpt>
      <trkpt lat="50.25494" lon="4.92979">
        <ele>222.14585414547</ele>
        <time>2017-05-27T15:29:48Z</time>
      </trkpt>
      <trkpt lat="50.25481" lon="4.93011">
        <ele>224.77965049414</ele>
        <time>2017-05-27T15:29:53Z</time>
      </trkpt>
      <trkpt lat="50.2547" lon="4.93035">
        <ele>227.08465592829</ele>
        <time>2017-05-27T15:29:57Z</time>
      </trkpt>
      <trkpt lat="50.2546" lon="4.9306">
        <ele>229.32073949195</ele>
        <time>2017-05-27T15:30:01Z</time>
      </trkpt>
      <trkpt lat="50.25448" lon="4.93092">
        <ele>230.64990245955</ele>
        <time>2017-05-27T15:30:06Z</time>
      </trkpt>
      <trkpt lat="50.25435" lon="4.93126">
        <ele>229.3983777932</ele>
        <time>2017-05-27T15:30:11Z</time>
      </trkpt>
      <trkpt lat="50.25424" lon="4.93155">
        <ele>229.81784990105</ele>
        <time>2017-05-27T15:30:15Z</time>
      </trkpt>
      <trkpt lat="50.25411" lon="4.9319">
        <ele>229.95513990229</ele>
        <time>2017-05-27T15:30:20Z</time>
      </trkpt>
      <trkpt lat="50.25401" lon="4.93215">
        <ele>232.18449409724</ele>
        <time>2017-05-27T15:30:24Z</time>
      </trkpt>
      <trkpt lat="50.25386" lon="4.9325">
        <ele>234.72459194611</ele>
        <time>2017-05-27T15:30:29Z</time>
      </trkpt>
      <trkpt lat="50.25375" lon="4.93279">
        <ele>234.55524551388</ele>
        <time>2017-05-27T15:30:33Z</time>
      </trkpt>
      <trkpt lat="50.25362" lon="4.93313">
        <ele>235.87875334548</ele>
        <time>2017-05-27T15:30:38Z</time>
      </trkpt>
      <trkpt lat="50.25351" lon="4.9334">
        <ele>239.57318370205</ele>
        <time>2017-05-27T15:30:43Z</time>
      </trkpt>
      <trkpt lat="50.25339" lon="4.93367">
        <ele>240.34568651201</ele>
        <time>2017-05-27T15:30:47Z</time>
      </trkpt>
      <trkpt lat="50.25328" lon="4.93391">
        <ele>240.12969563543</ele>
        <time>2017-05-27T15:30:51Z</time>
      </trkpt>
      <trkpt lat="50.25318" lon="4.93416">
        <ele>241.70027604821</ele>
        <time>2017-05-27T15:30:55Z</time>
      </trkpt>
      <trkpt lat="50.25308" lon="4.9344">
        <ele>242.2033009093</ele>
        <time>2017-05-27T15:30:59Z</time>
      </trkpt>
      <trkpt lat="50.25295" lon="4.9347">
        <ele>241.95647672907</ele>
        <time>2017-05-27T15:31:03Z</time>
      </trkpt>
      <trkpt lat="50.25288" lon="4.93509">
        <ele>247.5206989609</ele>
        <time>2017-05-27T15:31:08Z</time>
      </trkpt>
      <trkpt lat="50.25294" lon="4.93544">
        <ele>249.6991593307</ele>
        <time>2017-05-27T15:31:12Z</time>
      </trkpt>
      <trkpt lat="50.25303" lon="4.93584">
        <ele>250.02088580193</ele>
        <time>2017-05-27T15:31:16Z</time>
      </trkpt>
      <trkpt lat="50.25311" lon="4.93628">
        <ele>249.14627629755</ele>
        <time>2017-05-27T15:31:21Z</time>
      </trkpt>
      <trkpt lat="50.25316" lon="4.93666">
        <ele>249.61383462383</ele>
        <time>2017-05-27T15:31:25Z</time>
      </trkpt>
      <trkpt lat="50.25322" lon="4.93715">
        <ele>250.10589348</ele>
        <time>2017-05-27T15:31:30Z</time>
      </trkpt>
      <trkpt lat="50.25328" lon="4.93754">
        <ele>250.13182786285</ele>
        <time>2017-05-27T15:31:34Z</time>
      </trkpt>
      <trkpt lat="50.25334" lon="4.93804">
        <ele>249.68330289412</ele>
        <time>2017-05-27T15:31:39Z</time>
      </trkpt>
      <trkpt lat="50.2534" lon="4.93854">
        <ele>249.9245842942</ele>
        <time>2017-05-27T15:31:44Z</time>
      </trkpt>
      <trkpt lat="50.25344" lon="4.93893">
        <ele>250.00545175506</ele>
        <time>2017-05-27T15:31:48Z</time>
      </trkpt>
      <trkpt lat="50.25346" lon="4.93939">
        <ele>250.65870636344</ele>
        <time>2017-05-27T15:31:53Z</time>
      </trkpt>
      <trkpt lat="50.25349" lon="4.93987">
        <ele>250.71156991891</ele>
        <time>2017-05-27T15:31:58Z</time>
      </trkpt>
      <trkpt lat="50.25351" lon="4.94026">
        <ele>250.30037941255</ele>
        <time>2017-05-27T15:32:02Z</time>
      </trkpt>
      <trkpt lat="50.25353" lon="4.94074">
        <ele>250.7333514296</ele>
        <time>2017-05-27T15:32:07Z</time>
      </trkpt>
      <trkpt lat="50.25355" lon="4.94116">
        <ele>251.96934435708</ele>
        <time>2017-05-27T15:32:11Z</time>
      </trkpt>
      <trkpt lat="50.25356" lon="4.94171">
        <ele>251.3987431645</ele>
        <time>2017-05-27T15:32:16Z</time>
      </trkpt>
      <trkpt lat="50.25358" lon="4.9422">
        <ele>250.65288836971</ele>
        <time>2017-05-27T15:32:21Z</time>
      </trkpt>
      <trkpt lat="50.25358" lon="4.94258">
        <ele>251.2441547924</ele>
        <time>2017-05-27T15:32:25Z</time>
      </trkpt>
      <trkpt lat="50.25356" lon="4.94304">
        <ele>251.15690170305</ele>
        <time>2017-05-27T15:32:30Z</time>
      </trkpt>
      <trkpt lat="50.25352" lon="4.94344">
        <ele>251.72311140702</ele>
        <time>2017-05-27T15:32:34Z</time>
      </trkpt>
      <trkpt lat="50.25344" lon="4.94394">
        <ele>253.10009972826</ele>
        <time>2017-05-27T15:32:39Z</time>
      </trkpt>
      <trkpt lat="50.25338" lon="4.94429">
        <ele>253.49950067007</ele>
        <time>2017-05-27T15:32:43Z</time>
      </trkpt>
      <trkpt lat="50.25331" lon="4.94465">
        <ele>253.38377066697</ele>
        <time>2017-05-27T15:32:47Z</time>
      </trkpt>
      <trkpt lat="50.25324" lon="4.94502">
        <ele>252.8698805005</ele>
        <time>2017-05-27T15:32:51Z</time>
      </trkpt>
      <trkpt lat="50.25318" lon="4.94542">
        <ele>252.76311365066</ele>
        <time>2017-05-27T15:32:55Z</time>
      </trkpt>
      <trkpt lat="50.25314" lon="4.94593">
        <ele>252.37255856406</ele>
        <time>2017-05-27T15:33:00Z</time>
      </trkpt>
      <trkpt lat="50.25313" lon="4.94634">
        <ele>251.75215444473</ele>
        <time>2017-05-27T15:33:04Z</time>
      </trkpt>
      <trkpt lat="50.25314" lon="4.94684">
        <ele>251.06310915788</ele>
        <time>2017-05-27T15:33:09Z</time>
      </trkpt>
      <trkpt lat="50.25315" lon="4.94726">
        <ele>249.70045011333</ele>
        <time>2017-05-27T15:33:13Z</time>
      </trkpt>
      <trkpt lat="50.2532" lon="4.94775">
        <ele>248.56008953372</ele>
        <time>2017-05-27T15:33:18Z</time>
      </trkpt>
      <trkpt lat="50.25325" lon="4.94813">
        <ele>249.56442063892</ele>
        <time>2017-05-27T15:33:22Z</time>
      </trkpt>
      <trkpt lat="50.2533" lon="4.94854">
        <ele>251.24447189734</ele>
        <time>2017-05-27T15:33:26Z</time>
      </trkpt>
      <trkpt lat="50.25336" lon="4.94895">
        <ele>252.54423911806</ele>
        <time>2017-05-27T15:33:30Z</time>
      </trkpt>
      <trkpt lat="50.25341" lon="4.94934">
        <ele>253.02705842562</ele>
        <time>2017-05-27T15:33:34Z</time>
      </trkpt>
      <trkpt lat="50.25346" lon="4.94981">
        <ele>252.63373933664</ele>
        <time>2017-05-27T15:33:39Z</time>
      </trkpt>
      <trkpt lat="50.25349" lon="4.95018">
        <ele>250.3053408949</ele>
        <time>2017-05-27T15:33:43Z</time>
      </trkpt>
      <trkpt lat="50.25352" lon="4.95056">
        <ele>248.89054655886</ele>
        <time>2017-05-27T15:33:47Z</time>
      </trkpt>
      <trkpt lat="50.25356" lon="4.95104">
        <ele>249.30884806918</ele>
        <time>2017-05-27T15:33:52Z</time>
      </trkpt>
      <trkpt lat="50.25361" lon="4.95142">
        <ele>249.93564426119</ele>
        <time>2017-05-27T15:33:56Z</time>
      </trkpt>
      <trkpt lat="50.25365" lon="4.95188">
        <ele>248.06176774028</ele>
        <time>2017-05-27T15:34:01Z</time>
      </trkpt>
      <trkpt lat="50.25368" lon="4.95234">
        <ele>246.87397039664</ele>
        <time>2017-05-27T15:34:06Z</time>
      </trkpt>
      <trkpt lat="50.25372" lon="4.95271">
        <ele>246.5935607286</ele>
        <time>2017-05-27T15:34:10Z</time>
      </trkpt>
      <trkpt lat="50.25376" lon="4.95306">
        <ele>246.74751977787</ele>
        <time>2017-05-27T15:34:14Z</time>
      </trkpt>
      <trkpt lat="50.25379" lon="4.95342">
        <ele>246.97615678297</ele>
        <time>2017-05-27T15:34:18Z</time>
      </trkpt>
      <trkpt lat="50.25383" lon="4.95389">
        <ele>246.27061966277</ele>
        <time>2017-05-27T15:34:23Z</time>
      </trkpt>
      <trkpt lat="50.25387" lon="4.95427">
        <ele>246.59735980649</ele>
        <time>2017-05-27T15:34:27Z</time>
      </trkpt>
      <trkpt lat="50.2539" lon="4.95464">
        <ele>246.98132176834</ele>
        <time>2017-05-27T15:34:31Z</time>
      </trkpt>
      <trkpt lat="50.25396" lon="4.95509">
        <ele>248.41823024604</ele>
        <time>2017-05-27T15:34:36Z</time>
      </trkpt>
      <trkpt lat="50.25402" lon="4.95546">
        <ele>249.43526248434</ele>
        <time>2017-05-27T15:34:40Z</time>
      </trkpt>
      <trkpt lat="50.25412" lon="4.95592">
        <ele>249.81823793426</ele>
        <time>2017-05-27T15:34:45Z</time>
      </trkpt>
      <trkpt lat="50.25417" lon="4.95626">
        <ele>249.3223625592</ele>
        <time>2017-05-27T15:34:49Z</time>
      </trkpt>
      <trkpt lat="50.25421" lon="4.95672">
        <ele>249.26946494858</ele>
        <time>2017-05-27T15:34:54Z</time>
      </trkpt>
      <trkpt lat="50.25421" lon="4.95717">
        <ele>249.92708386122</ele>
        <time>2017-05-27T15:34:59Z</time>
      </trkpt>
      <trkpt lat="50.25424" lon="4.95767">
        <ele>250.65950848963</ele>
        <time>2017-05-27T15:35:04Z</time>
      </trkpt>
      <trkpt lat="50.25426" lon="4.95805">
        <ele>250.57448430527</ele>
        <time>2017-05-27T15:35:08Z</time>
      </trkpt>
      <trkpt lat="50.25429" lon="4.95844">
        <ele>250.23305784642</ele>
        <time>2017-05-27T15:35:12Z</time>
      </trkpt>
      <trkpt lat="50.25433" lon="4.95893">
        <ele>250.04416415824</ele>
        <time>2017-05-27T15:35:17Z</time>
      </trkpt>
      <trkpt lat="50.25438" lon="4.95928">
        <ele>247.63146266745</ele>
        <time>2017-05-27T15:35:21Z</time>
      </trkpt>
      <trkpt lat="50.25447" lon="4.95974">
        <ele>244.96774582969</ele>
        <time>2017-05-27T15:35:26Z</time>
      </trkpt>
      <trkpt lat="50.25457" lon="4.9601">
        <ele>244.30217017857</ele>
        <time>2017-05-27T15:35:30Z</time>
      </trkpt>
      <trkpt lat="50.2548" lon="4.96049">
        <ele>243.70239878598</ele>
        <time>2017-05-27T15:35:35Z</time>
      </trkpt>
      <trkpt lat="50.25505" lon="4.96077">
        <ele>242.60894987469</ele>
        <time>2017-05-27T15:35:39Z</time>
      </trkpt>
      <trkpt lat="50.25525" lon="4.96134">
        <ele>240.21491796208</ele>
        <time>2017-05-27T15:35:44Z</time>
      </trkpt>
      <trkpt lat="50.25529" lon="4.96193">
        <ele>239.16596719007</ele>
        <time>2017-05-27T15:35:49Z</time>
      </trkpt>
      <trkpt lat="50.25526" lon="4.96244">
        <ele>239.55886821323</ele>
        <time>2017-05-27T15:35:54Z</time>
      </trkpt>
      <trkpt lat="50.25526" lon="4.96285">
        <ele>239.06037098345</ele>
        <time>2017-05-27T15:35:58Z</time>
      </trkpt>
      <trkpt lat="50.25527" lon="4.96327">
        <ele>238.21458092664</ele>
        <time>2017-05-27T15:36:02Z</time>
      </trkpt>
      <trkpt lat="50.25528" lon="4.96372">
        <ele>239.94371935542</ele>
        <time>2017-05-27T15:36:07Z</time>
      </trkpt>
      <trkpt lat="50.25531" lon="4.9641">
        <ele>242.74770012255</ele>
        <time>2017-05-27T15:36:11Z</time>
      </trkpt>
      <trkpt lat="50.25534" lon="4.9646">
        <ele>244.22528382502</ele>
        <time>2017-05-27T15:36:16Z</time>
      </trkpt>
      <trkpt lat="50.25534" lon="4.96498">
        <ele>244.88678977673</ele>
        <time>2017-05-27T15:36:20Z</time>
      </trkpt>
      <trkpt lat="50.25536" lon="4.96539">
        <ele>245.3210975968</ele>
        <time>2017-05-27T15:36:24Z</time>
      </trkpt>
      <trkpt lat="50.25538" lon="4.96577">
        <ele>245.79616988083</ele>
        <time>2017-05-27T15:36:28Z</time>
      </trkpt>
      <trkpt lat="50.25541" lon="4.9662">
        <ele>248.01015046079</ele>
        <time>2017-05-27T15:36:33Z</time>
      </trkpt>
      <trkpt lat="50.25544" lon="4.96657">
        <ele>249.02131554196</ele>
        <time>2017-05-27T15:36:37Z</time>
      </trkpt>
      <trkpt lat="50.25547" lon="4.96696">
        <ele>249.53008086598</ele>
        <time>2017-05-27T15:36:41Z</time>
      </trkpt>
      <trkpt lat="50.25551" lon="4.96737">
        <ele>251.88946029334</ele>
        <time>2017-05-27T15:36:45Z</time>
      </trkpt>
      <trkpt lat="50.25554" lon="4.96776">
        <ele>252.53235538053</ele>
        <time>2017-05-27T15:36:49Z</time>
      </trkpt>
      <trkpt lat="50.25557" lon="4.96825">
        <ele>252.03774611776</ele>
        <time>2017-05-27T15:36:54Z</time>
      </trkpt>
      <trkpt lat="50.25558" lon="4.96862">
        <ele>250.83216991398</ele>
        <time>2017-05-27T15:36:58Z</time>
      </trkpt>
      <trkpt lat="50.2556" lon="4.96897">
        <ele>250.39897564237</ele>
        <time>2017-05-27T15:37:02Z</time>
      </trkpt>
      <trkpt lat="50.2556" lon="4.96936">
        <ele>250.74309460395</ele>
        <time>2017-05-27T15:37:07Z</time>
      </trkpt>
      <trkpt lat="50.2556" lon="4.96964">
        <ele>251.11146367661</ele>
        <time>2017-05-27T15:37:11Z</time>
      </trkpt>
      <trkpt lat="50.25561" lon="4.96994">
        <ele>255.4903313468</ele>
        <time>2017-05-27T15:37:16Z</time>
      </trkpt>
      <trkpt lat="50.25559" lon="4.97025">
        <ele>256.68168724352</ele>
        <time>2017-05-27T15:37:20Z</time>
      </trkpt>
      <trkpt lat="50.25564" lon="4.97059">
        <ele>253.98898289223</ele>
        <time>2017-05-27T15:37:24Z</time>
      </trkpt>
      <trkpt lat="50.25568" lon="4.97094">
        <ele>253.3518753396</ele>
        <time>2017-05-27T15:37:29Z</time>
      </trkpt>
      <trkpt lat="50.25571" lon="4.97124">
        <ele>254.22974656906</ele>
        <time>2017-05-27T15:37:33Z</time>
      </trkpt>
      <trkpt lat="50.25577" lon="4.97161">
        <ele>255.80013632126</ele>
        <time>2017-05-27T15:37:38Z</time>
      </trkpt>
      <trkpt lat="50.25583" lon="4.9719">
        <ele>257.06320526505</ele>
        <time>2017-05-27T15:37:42Z</time>
      </trkpt>
      <trkpt lat="50.25593" lon="4.97228">
        <ele>256.97653383838</ele>
        <time>2017-05-27T15:37:47Z</time>
      </trkpt>
      <trkpt lat="50.25602" lon="4.97259">
        <ele>257.00242192988</ele>
        <time>2017-05-27T15:37:51Z</time>
      </trkpt>
      <trkpt lat="50.25614" lon="4.97299">
        <ele>257.15016581693</ele>
        <time>2017-05-27T15:37:56Z</time>
      </trkpt>
      <trkpt lat="50.25623" lon="4.9733">
        <ele>257.96219745502</ele>
        <time>2017-05-27T15:38:00Z</time>
      </trkpt>
      <trkpt lat="50.25638" lon="4.9737">
        <ele>259.17712524863</ele>
        <time>2017-05-27T15:38:05Z</time>
      </trkpt>
      <trkpt lat="50.2565" lon="4.97394">
        <ele>260.21179339442</ele>
        <time>2017-05-27T15:38:09Z</time>
      </trkpt>
      <trkpt lat="50.25668" lon="4.9742">
        <ele>262.47040885729</ele>
        <time>2017-05-27T15:38:14Z</time>
      </trkpt>
      <trkpt lat="50.25684" lon="4.97446">
        <ele>263.56145271408</ele>
        <time>2017-05-27T15:38:18Z</time>
      </trkpt>
      <trkpt lat="50.25699" lon="4.97473">
        <ele>264.28603931211</ele>
        <time>2017-05-27T15:38:22Z</time>
      </trkpt>
      <trkpt lat="50.25718" lon="4.97504">
        <ele>264.15309871025</ele>
        <time>2017-05-27T15:38:27Z</time>
      </trkpt>
      <trkpt lat="50.25735" lon="4.97527">
        <ele>264.79857013868</ele>
        <time>2017-05-27T15:38:31Z</time>
      </trkpt>
      <trkpt lat="50.25757" lon="4.97553">
        <ele>264.86127540957</ele>
        <time>2017-05-27T15:38:36Z</time>
      </trkpt>
      <trkpt lat="50.25769" lon="4.97575">
        <ele>266.37829580717</ele>
        <time>2017-05-27T15:38:40Z</time>
      </trkpt>
      <trkpt lat="50.25784" lon="4.97601">
        <ele>267.59357185457</ele>
        <time>2017-05-27T15:38:45Z</time>
      </trkpt>
      <trkpt lat="50.25797" lon="4.97627">
        <ele>267.79495797156</ele>
        <time>2017-05-27T15:38:49Z</time>
      </trkpt>
      <trkpt lat="50.25811" lon="4.97651">
        <ele>266.98556848366</ele>
        <time>2017-05-27T15:38:53Z</time>
      </trkpt>
      <trkpt lat="50.25825" lon="4.97675">
        <ele>265.70257171303</ele>
        <time>2017-05-27T15:38:57Z</time>
      </trkpt>
      <trkpt lat="50.2584" lon="4.97703">
        <ele>264.49393586314</ele>
        <time>2017-05-27T15:39:02Z</time>
      </trkpt>
      <trkpt lat="50.25852" lon="4.97724">
        <ele>263.95823864498</ele>
        <time>2017-05-27T15:39:06Z</time>
      </trkpt>
      <trkpt lat="50.25863" lon="4.97754">
        <ele>264.14819873896</ele>
        <time>2017-05-27T15:39:10Z</time>
      </trkpt>
      <trkpt lat="50.25874" lon="4.97787">
        <ele>264.77802824249</ele>
        <time>2017-05-27T15:39:14Z</time>
      </trkpt>
      <trkpt lat="50.25889" lon="4.97826">
        <ele>265.40969517709</ele>
        <time>2017-05-27T15:39:19Z</time>
      </trkpt>
      <trkpt lat="50.25904" lon="4.97861">
        <ele>265.28342942522</ele>
        <time>2017-05-27T15:39:24Z</time>
      </trkpt>
      <trkpt lat="50.25916" lon="4.97887">
        <ele>264.66779496921</ele>
        <time>2017-05-27T15:39:28Z</time>
      </trkpt>
      <trkpt lat="50.25931" lon="4.97904">
        <ele>264.42185720492</ele>
        <time>2017-05-27T15:39:32Z</time>
      </trkpt>
      <trkpt lat="50.25937" lon="4.97924">
        <ele>264.45001109505</ele>
        <time>2017-05-27T15:39:36Z</time>
      </trkpt>
      <trkpt lat="50.25936" lon="4.97951">
        <ele>267.20189879387</ele>
        <time>2017-05-27T15:39:40Z</time>
      </trkpt>
      <trkpt lat="50.2594" lon="4.97994">
        <ele>269.09726260811</ele>
        <time>2017-05-27T15:39:45Z</time>
      </trkpt>
      <trkpt lat="50.25942" lon="4.98027">
        <ele>269.93296812982</ele>
        <time>2017-05-27T15:39:49Z</time>
      </trkpt>
      <trkpt lat="50.25943" lon="4.98062">
        <ele>269.55559604637</ele>
        <time>2017-05-27T15:39:53Z</time>
      </trkpt>
      <trkpt lat="50.25945" lon="4.98098">
        <ele>268.73993504797</ele>
        <time>2017-05-27T15:39:57Z</time>
      </trkpt>
      <trkpt lat="50.25946" lon="4.98135">
        <ele>267.45636131824</ele>
        <time>2017-05-27T15:40:01Z</time>
      </trkpt>
      <trkpt lat="50.25948" lon="4.98171">
        <ele>266.9273627294</ele>
        <time>2017-05-27T15:40:05Z</time>
      </trkpt>
      <trkpt lat="50.25951" lon="4.98216">
        <ele>268.02481380061</ele>
        <time>2017-05-27T15:40:10Z</time>
      </trkpt>
      <trkpt lat="50.25954" lon="4.98265">
        <ele>268.78287831569</ele>
        <time>2017-05-27T15:40:15Z</time>
      </trkpt>
      <trkpt lat="50.25955" lon="4.98321">
        <ele>267.18229520898</ele>
        <time>2017-05-27T15:40:20Z</time>
      </trkpt>
      <trkpt lat="50.25958" lon="4.98385">
        <ele>264.67267058272</ele>
        <time>2017-05-27T15:40:25Z</time>
      </trkpt>
      <trkpt lat="50.2596" lon="4.98441">
        <ele>262.73196415897</ele>
        <time>2017-05-27T15:40:29Z</time>
      </trkpt>
      <trkpt lat="50.25963" lon="4.98504">
        <ele>262.1291418725</ele>
        <time>2017-05-27T15:40:33Z</time>
      </trkpt>
      <trkpt lat="50.25966" lon="4.98586">
        <ele>259.35052121255</ele>
        <time>2017-05-27T15:40:38Z</time>
      </trkpt>
      <trkpt lat="50.25969" lon="4.98658">
        <ele>257.10845861964</ele>
        <time>2017-05-27T15:40:42Z</time>
      </trkpt>
      <trkpt lat="50.25973" lon="4.98747">
        <ele>253.58665775113</ele>
        <time>2017-05-27T15:40:47Z</time>
      </trkpt>
      <trkpt lat="50.25977" lon="4.98822">
        <ele>252.38581501108</ele>
        <time>2017-05-27T15:40:52Z</time>
      </trkpt>
      <trkpt lat="50.25978" lon="4.98873">
        <ele>253.7525228835</ele>
        <time>2017-05-27T15:40:57Z</time>
      </trkpt>
      <trkpt lat="50.2598" lon="4.98908">
        <ele>255.94888371994</ele>
        <time>2017-05-27T15:41:01Z</time>
      </trkpt>
      <trkpt lat="50.25982" lon="4.98947">
        <ele>258.02294488303</ele>
        <time>2017-05-27T15:41:06Z</time>
      </trkpt>
      <trkpt lat="50.25984" lon="4.98985">
        <ele>259.58710944095</ele>
        <time>2017-05-27T15:41:11Z</time>
      </trkpt>
      <trkpt lat="50.25985" lon="4.99015">
        <ele>258.10752374123</ele>
        <time>2017-05-27T15:41:15Z</time>
      </trkpt>
      <trkpt lat="50.25987" lon="4.9905">
        <ele>258.61774474157</ele>
        <time>2017-05-27T15:41:20Z</time>
      </trkpt>
      <trkpt lat="50.25987" lon="4.9908">
        <ele>257.31767121913</ele>
        <time>2017-05-27T15:41:24Z</time>
      </trkpt>
      <trkpt lat="50.25988" lon="4.99118">
        <ele>259.97975021439</ele>
        <time>2017-05-27T15:41:29Z</time>
      </trkpt>
      <trkpt lat="50.25988" lon="4.99149">
        <ele>261.12809109717</ele>
        <time>2017-05-27T15:41:33Z</time>
      </trkpt>
      <trkpt lat="50.25988" lon="4.99188">
        <ele>261.32182861393</ele>
        <time>2017-05-27T15:41:38Z</time>
      </trkpt>
      <trkpt lat="50.25988" lon="4.99225">
        <ele>262.30594334212</ele>
        <time>2017-05-27T15:41:43Z</time>
      </trkpt>
      <trkpt lat="50.2599" lon="4.99266">
        <ele>264.04770704505</ele>
        <time>2017-05-27T15:41:48Z</time>
      </trkpt>
      <trkpt lat="50.25991" lon="4.9931">
        <ele>266.54327440491</ele>
        <time>2017-05-27T15:41:53Z</time>
      </trkpt>
      <trkpt lat="50.25992" lon="4.99349">
        <ele>268.09113102218</ele>
        <time>2017-05-27T15:41:57Z</time>
      </trkpt>
      <trkpt lat="50.25994" lon="4.99394">
        <ele>268.79794192293</ele>
        <time>2017-05-27T15:42:02Z</time>
      </trkpt>
      <trkpt lat="50.25995" lon="4.9944">
        <ele>270.47611107538</ele>
        <time>2017-05-27T15:42:07Z</time>
      </trkpt>
      <trkpt lat="50.25996" lon="4.99477">
        <ele>272.68653159219</ele>
        <time>2017-05-27T15:42:11Z</time>
      </trkpt>
      <trkpt lat="50.25999" lon="4.99519">
        <ele>274.44350099495</ele>
        <time>2017-05-27T15:42:16Z</time>
      </trkpt>
      <trkpt lat="50.26004" lon="4.9956">
        <ele>274.87277165086</ele>
        <time>2017-05-27T15:42:21Z</time>
      </trkpt>
      <trkpt lat="50.26009" lon="4.99605">
        <ele>275.18314880153</ele>
        <time>2017-05-27T15:42:26Z</time>
      </trkpt>
      <trkpt lat="50.26008" lon="4.99642">
        <ele>276.71321278952</ele>
        <time>2017-05-27T15:42:30Z</time>
      </trkpt>
      <trkpt lat="50.26009" lon="4.99679">
        <ele>276.58180248142</ele>
        <time>2017-05-27T15:42:34Z</time>
      </trkpt>
      <trkpt lat="50.2601" lon="4.99716">
        <ele>275.85666259917</ele>
        <time>2017-05-27T15:42:38Z</time>
      </trkpt>
      <trkpt lat="50.2601" lon="4.99761">
        <ele>274.80686585315</ele>
        <time>2017-05-27T15:42:43Z</time>
      </trkpt>
      <trkpt lat="50.2601" lon="4.99797">
        <ele>274.39065354511</ele>
        <time>2017-05-27T15:42:47Z</time>
      </trkpt>
      <trkpt lat="50.26011" lon="4.99833">
        <ele>274.44449131815</ele>
        <time>2017-05-27T15:42:51Z</time>
      </trkpt>
      <trkpt lat="50.26013" lon="4.99879">
        <ele>275.81026327921</ele>
        <time>2017-05-27T15:42:56Z</time>
      </trkpt>
      <trkpt lat="50.26015" lon="4.99917">
        <ele>277.3560181723</ele>
        <time>2017-05-27T15:43:00Z</time>
      </trkpt>
      <trkpt lat="50.26017" lon="4.99965">
        <ele>279.48768707867</ele>
        <time>2017-05-27T15:43:05Z</time>
      </trkpt>
      <trkpt lat="50.26019" lon="5.00016">
        <ele>280.2112294015</ele>
        <time>2017-05-27T15:43:10Z</time>
      </trkpt>
      <trkpt lat="50.26022" lon="5.00058">
        <ele>280.30629548418</ele>
        <time>2017-05-27T15:43:14Z</time>
      </trkpt>
      <trkpt lat="50.26024" lon="5.00099">
        <ele>281.32710949779</ele>
        <time>2017-05-27T15:43:18Z</time>
      </trkpt>
      <trkpt lat="50.26025" lon="5.00138">
        <ele>282.83716085933</ele>
        <time>2017-05-27T15:43:22Z</time>
      </trkpt>
      <trkpt lat="50.26026" lon="5.00182">
        <ele>285.00430532907</ele>
        <time>2017-05-27T15:43:26Z</time>
      </trkpt>
      <trkpt lat="50.26028" lon="5.00231">
        <ele>284.69860912272</ele>
        <time>2017-05-27T15:43:31Z</time>
      </trkpt>
      <trkpt lat="50.26031" lon="5.00273">
        <ele>283.37768481581</ele>
        <time>2017-05-27T15:43:35Z</time>
      </trkpt>
      <trkpt lat="50.26034" lon="5.00324">
        <ele>283.58443205637</ele>
        <time>2017-05-27T15:43:40Z</time>
      </trkpt>
      <trkpt lat="50.26039" lon="5.00374">
        <ele>284.33825384021</ele>
        <time>2017-05-27T15:43:45Z</time>
      </trkpt>
      <trkpt lat="50.26043" lon="5.00415">
        <ele>285.53504468684</ele>
        <time>2017-05-27T15:43:49Z</time>
      </trkpt>
      <trkpt lat="50.26048" lon="5.00454">
        <ele>286.08441505061</ele>
        <time>2017-05-27T15:43:53Z</time>
      </trkpt>
      <trkpt lat="50.26052" lon="5.00492">
        <ele>285.32704140848</ele>
        <time>2017-05-27T15:43:57Z</time>
      </trkpt>
      <trkpt lat="50.26057" lon="5.00529">
        <ele>284.8809297254</ele>
        <time>2017-05-27T15:44:01Z</time>
      </trkpt>
      <trkpt lat="50.26063" lon="5.00576">
        <ele>284.82532721308</ele>
        <time>2017-05-27T15:44:06Z</time>
      </trkpt>
      <trkpt lat="50.26067" lon="5.00613">
        <ele>284.72513596422</ele>
        <time>2017-05-27T15:44:10Z</time>
      </trkpt>
      <trkpt lat="50.26071" lon="5.00652">
        <ele>285.0521951753</ele>
        <time>2017-05-27T15:44:14Z</time>
      </trkpt>
      <trkpt lat="50.26076" lon="5.00689">
        <ele>285.54247885696</ele>
        <time>2017-05-27T15:44:18Z</time>
      </trkpt>
      <trkpt lat="50.26082" lon="5.00736">
        <ele>286.65331398366</ele>
        <time>2017-05-27T15:44:23Z</time>
      </trkpt>
      <trkpt lat="50.26087" lon="5.00775">
        <ele>287.10966550257</ele>
        <time>2017-05-27T15:44:27Z</time>
      </trkpt>
      <trkpt lat="50.26092" lon="5.00814">
        <ele>287.48194674608</ele>
        <time>2017-05-27T15:44:31Z</time>
      </trkpt>
      <trkpt lat="50.26097" lon="5.0086">
        <ele>287.33171582096</ele>
        <time>2017-05-27T15:44:36Z</time>
      </trkpt>
      <trkpt lat="50.26103" lon="5.00909">
        <ele>286.85229356227</ele>
        <time>2017-05-27T15:44:41Z</time>
      </trkpt>
      <trkpt lat="50.26108" lon="5.00948">
        <ele>285.98286268389</ele>
        <time>2017-05-27T15:44:45Z</time>
      </trkpt>
      <trkpt lat="50.26114" lon="5.00998">
        <ele>285.12426593212</ele>
        <time>2017-05-27T15:44:50Z</time>
      </trkpt>
      <trkpt lat="50.26119" lon="5.01037">
        <ele>284.73614399182</ele>
        <time>2017-05-27T15:44:54Z</time>
      </trkpt>
      <trkpt lat="50.26125" lon="5.01084">
        <ele>283.8936040225</ele>
        <time>2017-05-27T15:44:59Z</time>
      </trkpt>
      <trkpt lat="50.2613" lon="5.01126">
        <ele>284.13203241165</ele>
        <time>2017-05-27T15:45:03Z</time>
      </trkpt>
      <trkpt lat="50.26135" lon="5.01165">
        <ele>284.42225130007</ele>
        <time>2017-05-27T15:45:07Z</time>
      </trkpt>
      <trkpt lat="50.26143" lon="5.01221">
        <ele>283.42470521875</ele>
        <time>2017-05-27T15:45:12Z</time>
      </trkpt>
      <trkpt lat="50.2615" lon="5.01267">
        <ele>282.99872465366</ele>
        <time>2017-05-27T15:45:16Z</time>
      </trkpt>
      <trkpt lat="50.26157" lon="5.01313">
        <ele>282.21321445655</ele>
        <time>2017-05-27T15:45:20Z</time>
      </trkpt>
      <trkpt lat="50.26165" lon="5.0136">
        <ele>282.23030847874</ele>
        <time>2017-05-27T15:45:24Z</time>
      </trkpt>
      <trkpt lat="50.26172" lon="5.01407">
        <ele>281.96729878947</ele>
        <time>2017-05-27T15:45:28Z</time>
      </trkpt>
      <trkpt lat="50.2618" lon="5.01453">
        <ele>281.70387664411</ele>
        <time>2017-05-27T15:45:32Z</time>
      </trkpt>
      <trkpt lat="50.2619" lon="5.01511">
        <ele>280.99980579534</ele>
        <time>2017-05-27T15:45:37Z</time>
      </trkpt>
      <trkpt lat="50.26199" lon="5.01566">
        <ele>279.95984337461</ele>
        <time>2017-05-27T15:45:42Z</time>
      </trkpt>
      <trkpt lat="50.26208" lon="5.01621">
        <ele>279.03240198649</ele>
        <time>2017-05-27T15:45:47Z</time>
      </trkpt>
      <trkpt lat="50.26215" lon="5.01664">
        <ele>278.66247713766</ele>
        <time>2017-05-27T15:45:51Z</time>
      </trkpt>
      <trkpt lat="50.26223" lon="5.0171">
        <ele>277.28276086626</ele>
        <time>2017-05-27T15:45:56Z</time>
      </trkpt>
      <trkpt lat="50.2623" lon="5.01746">
        <ele>276.01965938966</ele>
        <time>2017-05-27T15:46:00Z</time>
      </trkpt>
      <trkpt lat="50.26239" lon="5.01795">
        <ele>275.30352020546</ele>
        <time>2017-05-27T15:46:05Z</time>
      </trkpt>
      <trkpt lat="50.26248" lon="5.01844">
        <ele>274.68124698075</ele>
        <time>2017-05-27T15:46:10Z</time>
      </trkpt>
      <trkpt lat="50.26255" lon="5.01882">
        <ele>274.29689895101</ele>
        <time>2017-05-27T15:46:14Z</time>
      </trkpt>
      <trkpt lat="50.26262" lon="5.01921">
        <ele>274.87535710491</ele>
        <time>2017-05-27T15:46:18Z</time>
      </trkpt>
      <trkpt lat="50.2627" lon="5.01968">
        <ele>276.05926523434</ele>
        <time>2017-05-27T15:46:23Z</time>
      </trkpt>
      <trkpt lat="50.26278" lon="5.02008">
        <ele>276.45752813662</ele>
        <time>2017-05-27T15:46:27Z</time>
      </trkpt>
      <trkpt lat="50.26285" lon="5.02046">
        <ele>276.79003918477</ele>
        <time>2017-05-27T15:46:31Z</time>
      </trkpt>
      <trkpt lat="50.26291" lon="5.02085">
        <ele>278.38835879334</ele>
        <time>2017-05-27T15:46:35Z</time>
      </trkpt>
      <trkpt lat="50.26297" lon="5.0212">
        <ele>279.75888400365</ele>
        <time>2017-05-27T15:46:39Z</time>
      </trkpt>
      <trkpt lat="50.26305" lon="5.0217">
        <ele>279.53471077045</ele>
        <time>2017-05-27T15:46:44Z</time>
      </trkpt>
      <trkpt lat="50.26312" lon="5.0221">
        <ele>278.72629949418</ele>
        <time>2017-05-27T15:46:48Z</time>
      </trkpt>
      <trkpt lat="50.26319" lon="5.02254">
        <ele>278.86036638722</ele>
        <time>2017-05-27T15:46:53Z</time>
      </trkpt>
      <trkpt lat="50.26325" lon="5.02288">
        <ele>279.48675675756</ele>
        <time>2017-05-27T15:46:57Z</time>
      </trkpt>
      <trkpt lat="50.26332" lon="5.02334">
        <ele>279.6616834163</ele>
        <time>2017-05-27T15:47:02Z</time>
      </trkpt>
      <trkpt lat="50.26339" lon="5.02372">
        <ele>279.33741212663</ele>
        <time>2017-05-27T15:47:06Z</time>
      </trkpt>
      <trkpt lat="50.26346" lon="5.02409">
        <ele>279.60729670045</ele>
        <time>2017-05-27T15:47:10Z</time>
      </trkpt>
      <trkpt lat="50.26352" lon="5.02458">
        <ele>279.21339968904</ele>
        <time>2017-05-27T15:47:15Z</time>
      </trkpt>
      <trkpt lat="50.26355" lon="5.02498">
        <ele>278.91750999254</ele>
        <time>2017-05-27T15:47:19Z</time>
      </trkpt>
      <trkpt lat="50.26356" lon="5.02547">
        <ele>278.7582394079</ele>
        <time>2017-05-27T15:47:24Z</time>
      </trkpt>
      <trkpt lat="50.26354" lon="5.02585">
        <ele>279.10796706825</ele>
        <time>2017-05-27T15:47:28Z</time>
      </trkpt>
      <trkpt lat="50.26351" lon="5.02619">
        <ele>280.07006785536</ele>
        <time>2017-05-27T15:47:32Z</time>
      </trkpt>
      <trkpt lat="50.26346" lon="5.0266">
        <ele>281.84243947057</ele>
        <time>2017-05-27T15:47:37Z</time>
      </trkpt>
      <trkpt lat="50.2634" lon="5.02692">
        <ele>283.04675894527</ele>
        <time>2017-05-27T15:47:41Z</time>
      </trkpt>
      <trkpt lat="50.26332" lon="5.0273">
        <ele>286.02011106873</ele>
        <time>2017-05-27T15:47:46Z</time>
      </trkpt>
      <trkpt lat="50.26324" lon="5.02763">
        <ele>287.76272494871</ele>
        <time>2017-05-27T15:47:50Z</time>
      </trkpt>
      <trkpt lat="50.26315" lon="5.02795">
        <ele>289.90903797705</ele>
        <time>2017-05-27T15:47:54Z</time>
      </trkpt>
      <trkpt lat="50.26306" lon="5.02826">
        <ele>291.88448692385</ele>
        <time>2017-05-27T15:47:58Z</time>
      </trkpt>
      <trkpt lat="50.26292" lon="5.02861">
        <ele>291.77211660965</ele>
        <time>2017-05-27T15:48:03Z</time>
      </trkpt>
      <trkpt lat="50.26279" lon="5.02889">
        <ele>290.04558155135</ele>
        <time>2017-05-27T15:48:07Z</time>
      </trkpt>
      <trkpt lat="50.26264" lon="5.02918">
        <ele>289.56031470964</ele>
        <time>2017-05-27T15:48:12Z</time>
      </trkpt>
      <trkpt lat="50.26246" lon="5.0295">
        <ele>289.06926953555</ele>
        <time>2017-05-27T15:48:17Z</time>
      </trkpt>
      <trkpt lat="50.26231" lon="5.02974">
        <ele>288.7903265915</ele>
        <time>2017-05-27T15:48:21Z</time>
      </trkpt>
      <trkpt lat="50.26213" lon="5.03006">
        <ele>288.78382627773</ele>
        <time>2017-05-27T15:48:26Z</time>
      </trkpt>
      <trkpt lat="50.26194" lon="5.03031">
        <ele>287.10095492797</ele>
        <time>2017-05-27T15:48:30Z</time>
      </trkpt>
      <trkpt lat="50.26174" lon="5.03056">
        <ele>285.19303293479</ele>
        <time>2017-05-27T15:48:34Z</time>
      </trkpt>
      <trkpt lat="50.26149" lon="5.03086">
        <ele>285.84992463183</ele>
        <time>2017-05-27T15:48:39Z</time>
      </trkpt>
      <trkpt lat="50.2613" lon="5.03102">
        <ele>286.98349394642</ele>
        <time>2017-05-27T15:48:43Z</time>
      </trkpt>
      <trkpt lat="50.26122" lon="5.03124">
        <ele>286.8691114457</ele>
        <time>2017-05-27T15:48:47Z</time>
      </trkpt>
      <trkpt lat="50.26126" lon="5.03153">
        <ele>285.13572358353</ele>
        <time>2017-05-27T15:48:51Z</time>
      </trkpt>
      <trkpt lat="50.26134" lon="5.03181">
        <ele>283.82905658829</ele>
        <time>2017-05-27T15:48:55Z</time>
      </trkpt>
      <trkpt lat="50.26146" lon="5.03216">
        <ele>283.63040377175</ele>
        <time>2017-05-27T15:49:00Z</time>
      </trkpt>
      <trkpt lat="50.26155" lon="5.03245">
        <ele>283.96483083569</ele>
        <time>2017-05-27T15:49:04Z</time>
      </trkpt>
      <trkpt lat="50.26165" lon="5.03275">
        <ele>284.35904936359</ele>
        <time>2017-05-27T15:49:08Z</time>
      </trkpt>
      <trkpt lat="50.26175" lon="5.03304">
        <ele>283.91077537521</ele>
        <time>2017-05-27T15:49:12Z</time>
      </trkpt>
      <trkpt lat="50.26187" lon="5.0334">
        <ele>283.65434768612</ele>
        <time>2017-05-27T15:49:17Z</time>
      </trkpt>
      <trkpt lat="50.26197" lon="5.03369">
        <ele>283.61654772772</ele>
        <time>2017-05-27T15:49:21Z</time>
      </trkpt>
      <trkpt lat="50.2621" lon="5.03407">
        <ele>282.9624924817</ele>
        <time>2017-05-27T15:49:26Z</time>
      </trkpt>
      <trkpt lat="50.26221" lon="5.03436">
        <ele>282.68693144084</ele>
        <time>2017-05-27T15:49:30Z</time>
      </trkpt>
      <trkpt lat="50.26235" lon="5.03471">
        <ele>283.80107070658</ele>
        <time>2017-05-27T15:49:35Z</time>
      </trkpt>
      <trkpt lat="50.26246" lon="5.035">
        <ele>285.15056479673</ele>
        <time>2017-05-27T15:49:39Z</time>
      </trkpt>
      <trkpt lat="50.26258" lon="5.03527">
        <ele>287.10084348429</ele>
        <time>2017-05-27T15:49:43Z</time>
      </trkpt>
      <trkpt lat="50.2627" lon="5.03555">
        <ele>288.71698277351</ele>
        <time>2017-05-27T15:49:47Z</time>
      </trkpt>
      <trkpt lat="50.26284" lon="5.03588">
        <ele>290.63159274728</ele>
        <time>2017-05-27T15:49:52Z</time>
      </trkpt>
      <trkpt lat="50.26298" lon="5.03622">
        <ele>292.47394796625</ele>
        <time>2017-05-27T15:49:57Z</time>
      </trkpt>
      <trkpt lat="50.26309" lon="5.03653">
        <ele>292.69974903749</ele>
        <time>2017-05-27T15:50:01Z</time>
      </trkpt>
      <trkpt lat="50.26325" lon="5.0369">
        <ele>292.65796697254</ele>
        <time>2017-05-27T15:50:06Z</time>
      </trkpt>
      <trkpt lat="50.2634" lon="5.03728">
        <ele>293.30841535655</ele>
        <time>2017-05-27T15:50:11Z</time>
      </trkpt>
      <trkpt lat="50.26353" lon="5.03758">
        <ele>294.1802161451</ele>
        <time>2017-05-27T15:50:15Z</time>
      </trkpt>
      <trkpt lat="50.26369" lon="5.03796">
        <ele>294.65123178509</ele>
        <time>2017-05-27T15:50:20Z</time>
      </trkpt>
      <trkpt lat="50.26381" lon="5.03825">
        <ele>295.32574844217</ele>
        <time>2017-05-27T15:50:24Z</time>
      </trkpt>
      <trkpt lat="50.26397" lon="5.03863">
        <ele>295.75253004645</ele>
        <time>2017-05-27T15:50:29Z</time>
      </trkpt>
      <trkpt lat="50.26411" lon="5.03894">
        <ele>297.295190499</ele>
        <time>2017-05-27T15:50:33Z</time>
      </trkpt>
      <trkpt lat="50.26427" lon="5.03933">
        <ele>297.70367157896</ele>
        <time>2017-05-27T15:50:38Z</time>
      </trkpt>
      <trkpt lat="50.2644" lon="5.03965">
        <ele>297.31177583704</ele>
        <time>2017-05-27T15:50:42Z</time>
      </trkpt>
      <trkpt lat="50.26456" lon="5.04005">
        <ele>296.30846717007</ele>
        <time>2017-05-27T15:50:47Z</time>
      </trkpt>
      <trkpt lat="50.2647" lon="5.04036">
        <ele>296.32472874646</ele>
        <time>2017-05-27T15:50:51Z</time>
      </trkpt>
      <trkpt lat="50.26486" lon="5.04064">
        <ele>296.40454645129</ele>
        <time>2017-05-27T15:50:55Z</time>
      </trkpt>
      <trkpt lat="50.26503" lon="5.04092">
        <ele>294.7977159928</ele>
        <time>2017-05-27T15:50:59Z</time>
      </trkpt>
      <trkpt lat="50.26522" lon="5.04117">
        <ele>292.7783845346</ele>
        <time>2017-05-27T15:51:03Z</time>
      </trkpt>
      <trkpt lat="50.26549" lon="5.04147">
        <ele>290.52660789093</ele>
        <time>2017-05-27T15:51:08Z</time>
      </trkpt>
      <trkpt lat="50.26571" lon="5.0417">
        <ele>289.93318525018</ele>
        <time>2017-05-27T15:51:12Z</time>
      </trkpt>
      <trkpt lat="50.26595" lon="5.04202">
        <ele>289.01941562291</ele>
        <time>2017-05-27T15:51:17Z</time>
      </trkpt>
      <trkpt lat="50.26612" lon="5.04231">
        <ele>288.18304356906</ele>
        <time>2017-05-27T15:51:21Z</time>
      </trkpt>
      <trkpt lat="50.26625" lon="5.04264">
        <ele>287.58509340895</ele>
        <time>2017-05-27T15:51:25Z</time>
      </trkpt>
      <trkpt lat="50.26635" lon="5.04298">
        <ele>288.01143649843</ele>
        <time>2017-05-27T15:51:29Z</time>
      </trkpt>
      <trkpt lat="50.26643" lon="5.04343">
        <ele>289.04595453173</ele>
        <time>2017-05-27T15:51:34Z</time>
      </trkpt>
      <trkpt lat="50.26648" lon="5.04381">
        <ele>290.07092983573</ele>
        <time>2017-05-27T15:51:38Z</time>
      </trkpt>
      <trkpt lat="50.26652" lon="5.04418">
        <ele>289.99910284268</ele>
        <time>2017-05-27T15:51:42Z</time>
      </trkpt>
      <trkpt lat="50.26656" lon="5.04454">
        <ele>290.27524396689</ele>
        <time>2017-05-27T15:51:46Z</time>
      </trkpt>
      <trkpt lat="50.2666" lon="5.04501">
        <ele>291.63668271823</ele>
        <time>2017-05-27T15:51:51Z</time>
      </trkpt>
      <trkpt lat="50.26662" lon="5.04536">
        <ele>292.23896576522</ele>
        <time>2017-05-27T15:51:55Z</time>
      </trkpt>
      <trkpt lat="50.26664" lon="5.04572">
        <ele>292.6063291287</ele>
        <time>2017-05-27T15:51:59Z</time>
      </trkpt>
      <trkpt lat="50.26668" lon="5.04607">
        <ele>293.70594778259</ele>
        <time>2017-05-27T15:52:03Z</time>
      </trkpt>
      <trkpt lat="50.26673" lon="5.04652">
        <ele>295.1168982666</ele>
        <time>2017-05-27T15:52:08Z</time>
      </trkpt>
      <trkpt lat="50.26676" lon="5.04689">
        <ele>295.57367626775</ele>
        <time>2017-05-27T15:52:12Z</time>
      </trkpt>
      <trkpt lat="50.26678" lon="5.04727">
        <ele>296.02685423481</ele>
        <time>2017-05-27T15:52:16Z</time>
      </trkpt>
      <trkpt lat="50.26684" lon="5.04776">
        <ele>297.19996200278</ele>
        <time>2017-05-27T15:52:21Z</time>
      </trkpt>
      <trkpt lat="50.26687" lon="5.04812">
        <ele>297.93185014395</ele>
        <time>2017-05-27T15:52:25Z</time>
      </trkpt>
      <trkpt lat="50.2669" lon="5.04849">
        <ele>299.45624180613</ele>
        <time>2017-05-27T15:52:29Z</time>
      </trkpt>
      <trkpt lat="50.26697" lon="5.04895">
        <ele>299.78862442167</ele>
        <time>2017-05-27T15:52:34Z</time>
      </trkpt>
      <trkpt lat="50.26704" lon="5.0494">
        <ele>299.84983658078</ele>
        <time>2017-05-27T15:52:39Z</time>
      </trkpt>
      <trkpt lat="50.26711" lon="5.04978">
        <ele>300.25855930278</ele>
        <time>2017-05-27T15:52:43Z</time>
      </trkpt>
      <trkpt lat="50.26719" lon="5.05025">
        <ele>300.44880741583</ele>
        <time>2017-05-27T15:52:48Z</time>
      </trkpt>
      <trkpt lat="50.26726" lon="5.05071">
        <ele>300.29661058194</ele>
        <time>2017-05-27T15:52:53Z</time>
      </trkpt>
      <trkpt lat="50.26734" lon="5.05116">
        <ele>300.25155245649</ele>
        <time>2017-05-27T15:52:58Z</time>
      </trkpt>
      <trkpt lat="50.2674" lon="5.05153">
        <ele>300.72352726762</ele>
        <time>2017-05-27T15:53:02Z</time>
      </trkpt>
      <trkpt lat="50.26745" lon="5.0519">
        <ele>301.13069277506</ele>
        <time>2017-05-27T15:53:06Z</time>
      </trkpt>
      <trkpt lat="50.26751" lon="5.05235">
        <ele>301.58559268726</ele>
        <time>2017-05-27T15:53:11Z</time>
      </trkpt>
      <trkpt lat="50.26757" lon="5.0527">
        <ele>302.00692516521</ele>
        <time>2017-05-27T15:53:15Z</time>
      </trkpt>
      <trkpt lat="50.26762" lon="5.05306">
        <ele>302.50518468613</ele>
        <time>2017-05-27T15:53:19Z</time>
      </trkpt>
      <trkpt lat="50.26769" lon="5.05343">
        <ele>303.82401573669</ele>
        <time>2017-05-27T15:53:23Z</time>
      </trkpt>
      <trkpt lat="50.2678" lon="5.05387">
        <ele>305.95896690639</ele>
        <time>2017-05-27T15:53:28Z</time>
      </trkpt>
      <trkpt lat="50.26792" lon="5.0542">
        <ele>307.42618418398</ele>
        <time>2017-05-27T15:53:32Z</time>
      </trkpt>
      <trkpt lat="50.26807" lon="5.05459">
        <ele>309.64859956696</ele>
        <time>2017-05-27T15:53:37Z</time>
      </trkpt>
      <trkpt lat="50.26822" lon="5.05492">
        <ele>310.48674895381</ele>
        <time>2017-05-27T15:53:42Z</time>
      </trkpt>
      <trkpt lat="50.26836" lon="5.05523">
        <ele>311.22245715986</ele>
        <time>2017-05-27T15:53:46Z</time>
      </trkpt>
      <trkpt lat="50.26848" lon="5.0555">
        <ele>311.97062545549</ele>
        <time>2017-05-27T15:53:50Z</time>
      </trkpt>
      <trkpt lat="50.26861" lon="5.05586">
        <ele>314.08792121454</ele>
        <time>2017-05-27T15:53:55Z</time>
      </trkpt>
      <trkpt lat="50.26873" lon="5.05615">
        <ele>316.19149697392</ele>
        <time>2017-05-27T15:53:59Z</time>
      </trkpt>
      <trkpt lat="50.26887" lon="5.05651">
        <ele>318.31113240792</ele>
        <time>2017-05-27T15:54:04Z</time>
      </trkpt>
      <trkpt lat="50.26901" lon="5.05686">
        <ele>318.9353372682</ele>
        <time>2017-05-27T15:54:09Z</time>
      </trkpt>
      <trkpt lat="50.26913" lon="5.05712">
        <ele>317.30139007651</ele>
        <time>2017-05-27T15:54:13Z</time>
      </trkpt>
      <trkpt lat="50.26927" lon="5.05741">
        <ele>316.35677886212</ele>
        <time>2017-05-27T15:54:17Z</time>
      </trkpt>
      <trkpt lat="50.26942" lon="5.05776">
        <ele>315.47606724307</ele>
        <time>2017-05-27T15:54:22Z</time>
      </trkpt>
      <trkpt lat="50.26956" lon="5.05804">
        <ele>315.27835456729</ele>
        <time>2017-05-27T15:54:26Z</time>
      </trkpt>
      <trkpt lat="50.26969" lon="5.05832">
        <ele>315.36789821651</ele>
        <time>2017-05-27T15:54:30Z</time>
      </trkpt>
      <trkpt lat="50.26988" lon="5.05865">
        <ele>316.12667756825</ele>
        <time>2017-05-27T15:54:35Z</time>
      </trkpt>
      <trkpt lat="50.27004" lon="5.05892">
        <ele>316.27254002459</ele>
        <time>2017-05-27T15:54:39Z</time>
      </trkpt>
      <trkpt lat="50.27018" lon="5.05919">
        <ele>315.94871102532</ele>
        <time>2017-05-27T15:54:43Z</time>
      </trkpt>
      <trkpt lat="50.27037" lon="5.05953">
        <ele>315.50338455415</ele>
        <time>2017-05-27T15:54:48Z</time>
      </trkpt>
      <trkpt lat="50.27055" lon="5.05989">
        <ele>315.69415897487</ele>
        <time>2017-05-27T15:54:53Z</time>
      </trkpt>
      <trkpt lat="50.27071" lon="5.06022">
        <ele>315.52357884838</ele>
        <time>2017-05-27T15:54:58Z</time>
      </trkpt>
      <trkpt lat="50.27087" lon="5.0605">
        <ele>314.78640654863</ele>
        <time>2017-05-27T15:55:03Z</time>
      </trkpt>
      <trkpt lat="50.27099" lon="5.06073">
        <ele>313.9637487336</ele>
        <time>2017-05-27T15:55:07Z</time>
      </trkpt>
      <trkpt lat="50.27113" lon="5.061">
        <ele>313.44054432057</ele>
        <time>2017-05-27T15:55:11Z</time>
      </trkpt>
      <trkpt lat="50.27128" lon="5.06129">
        <ele>313.07528199821</ele>
        <time>2017-05-27T15:55:15Z</time>
      </trkpt>
      <trkpt lat="50.27147" lon="5.06166">
        <ele>312.77352484386</ele>
        <time>2017-05-27T15:55:20Z</time>
      </trkpt>
      <trkpt lat="50.27163" lon="5.06195">
        <ele>313.25470311562</ele>
        <time>2017-05-27T15:55:24Z</time>
      </trkpt>
      <trkpt lat="50.27182" lon="5.0623">
        <ele>312.92135791794</ele>
        <time>2017-05-27T15:55:29Z</time>
      </trkpt>
      <trkpt lat="50.27197" lon="5.06261">
        <ele>312.61338177817</ele>
        <time>2017-05-27T15:55:33Z</time>
      </trkpt>
      <trkpt lat="50.27211" lon="5.06292">
        <ele>312.59899302906</ele>
        <time>2017-05-27T15:55:37Z</time>
      </trkpt>
      <trkpt lat="50.27225" lon="5.06322">
        <ele>312.5229721464</ele>
        <time>2017-05-27T15:55:41Z</time>
      </trkpt>
      <trkpt lat="50.27238" lon="5.06352">
        <ele>312.3699775273</ele>
        <time>2017-05-27T15:55:45Z</time>
      </trkpt>
      <trkpt lat="50.27252" lon="5.06382">
        <ele>312.28089497725</ele>
        <time>2017-05-27T15:55:49Z</time>
      </trkpt>
      <trkpt lat="50.27265" lon="5.06413">
        <ele>312.18299974995</ele>
        <time>2017-05-27T15:55:53Z</time>
      </trkpt>
      <trkpt lat="50.27283" lon="5.06453">
        <ele>312.97086873614</ele>
        <time>2017-05-27T15:55:58Z</time>
      </trkpt>
      <trkpt lat="50.27301" lon="5.06494">
        <ele>312.94486109649</ele>
        <time>2017-05-27T15:56:03Z</time>
      </trkpt>
      <trkpt lat="50.27315" lon="5.06525">
        <ele>311.50737758965</ele>
        <time>2017-05-27T15:56:07Z</time>
      </trkpt>
      <trkpt lat="50.27334" lon="5.06565">
        <ele>309.64718317145</ele>
        <time>2017-05-27T15:56:12Z</time>
      </trkpt>
      <trkpt lat="50.27348" lon="5.06596">
        <ele>309.26712640117</ele>
        <time>2017-05-27T15:56:16Z</time>
      </trkpt>
      <trkpt lat="50.27366" lon="5.06631">
        <ele>308.71779645271</ele>
        <time>2017-05-27T15:56:21Z</time>
      </trkpt>
      <trkpt lat="50.27385" lon="5.06664">
        <ele>308.45842901117</ele>
        <time>2017-05-27T15:56:26Z</time>
      </trkpt>
      <trkpt lat="50.27402" lon="5.06692">
        <ele>308.34535119609</ele>
        <time>2017-05-27T15:56:30Z</time>
      </trkpt>
      <trkpt lat="50.27417" lon="5.06719">
        <ele>308.02899234045</ele>
        <time>2017-05-27T15:56:34Z</time>
      </trkpt>
      <trkpt lat="50.27431" lon="5.06747">
        <ele>307.55490666221</ele>
        <time>2017-05-27T15:56:38Z</time>
      </trkpt>
      <trkpt lat="50.27445" lon="5.06776">
        <ele>307.11453379057</ele>
        <time>2017-05-27T15:56:42Z</time>
      </trkpt>
      <trkpt lat="50.27461" lon="5.06817">
        <ele>306.95779526091</ele>
        <time>2017-05-27T15:56:47Z</time>
      </trkpt>
      <trkpt lat="50.27473" lon="5.06851">
        <ele>306.82559669168</ele>
        <time>2017-05-27T15:56:51Z</time>
      </trkpt>
      <trkpt lat="50.27487" lon="5.069">
        <ele>306.48970139498</ele>
        <time>2017-05-27T15:56:56Z</time>
      </trkpt>
      <trkpt lat="50.27499" lon="5.06943">
        <ele>306.25906181429</ele>
        <time>2017-05-27T15:57:00Z</time>
      </trkpt>
      <trkpt lat="50.27511" lon="5.06991">
        <ele>305.46986728896</ele>
        <time>2017-05-27T15:57:04Z</time>
      </trkpt>
      <trkpt lat="50.27527" lon="5.07053">
        <ele>303.25903283275</ele>
        <time>2017-05-27T15:57:09Z</time>
      </trkpt>
      <trkpt lat="50.27544" lon="5.07119">
        <ele>300.30015920438</ele>
        <time>2017-05-27T15:57:14Z</time>
      </trkpt>
      <trkpt lat="50.27559" lon="5.07173">
        <ele>299.24546312525</ele>
        <time>2017-05-27T15:57:18Z</time>
      </trkpt>
      <trkpt lat="50.27577" lon="5.07224">
        <ele>300.3007456761</ele>
        <time>2017-05-27T15:57:22Z</time>
      </trkpt>
      <trkpt lat="50.27601" lon="5.07281">
        <ele>300.26832460975</ele>
        <time>2017-05-27T15:57:27Z</time>
      </trkpt>
      <trkpt lat="50.27621" lon="5.07323">
        <ele>298.88439402814</ele>
        <time>2017-05-27T15:57:31Z</time>
      </trkpt>
      <trkpt lat="50.27641" lon="5.07362">
        <ele>296.63088029666</ele>
        <time>2017-05-27T15:57:35Z</time>
      </trkpt>
      <trkpt lat="50.27664" lon="5.07411">
        <ele>294.92235338334</ele>
        <time>2017-05-27T15:57:40Z</time>
      </trkpt>
      <trkpt lat="50.27687" lon="5.07462">
        <ele>294.83356930221</ele>
        <time>2017-05-27T15:57:45Z</time>
      </trkpt>
      <trkpt lat="50.27711" lon="5.07519">
        <ele>292.79770307047</ele>
        <time>2017-05-27T15:57:50Z</time>
      </trkpt>
      <trkpt lat="50.27731" lon="5.07567">
        <ele>289.94477454749</ele>
        <time>2017-05-27T15:57:54Z</time>
      </trkpt>
      <trkpt lat="50.27759" lon="5.07629">
        <ele>286.07868869413</ele>
        <time>2017-05-27T15:57:59Z</time>
      </trkpt>
      <trkpt lat="50.27781" lon="5.07682">
        <ele>284.13881245631</ele>
        <time>2017-05-27T15:58:03Z</time>
      </trkpt>
      <trkpt lat="50.27804" lon="5.07738">
        <ele>282.05304314422</ele>
        <time>2017-05-27T15:58:07Z</time>
      </trkpt>
      <trkpt lat="50.27836" lon="5.07811">
        <ele>278.62172434203</ele>
        <time>2017-05-27T15:58:12Z</time>
      </trkpt>
      <trkpt lat="50.27874" lon="5.07871">
        <ele>274.93640172339</ele>
        <time>2017-05-27T15:58:17Z</time>
      </trkpt>
      <trkpt lat="50.27909" lon="5.07908">
        <ele>272.55327736806</ele>
        <time>2017-05-27T15:58:21Z</time>
      </trkpt>
      <trkpt lat="50.27943" lon="5.07942">
        <ele>271.86455521249</ele>
        <time>2017-05-27T15:58:25Z</time>
      </trkpt>
      <trkpt lat="50.27982" lon="5.07976">
        <ele>270.75863612329</ele>
        <time>2017-05-27T15:58:30Z</time>
      </trkpt>
      <trkpt lat="50.2802" lon="5.08012">
        <ele>270.52705881028</ele>
        <time>2017-05-27T15:58:35Z</time>
      </trkpt>
      <trkpt lat="50.28053" lon="5.08045">
        <ele>271.22937259131</ele>
        <time>2017-05-27T15:58:40Z</time>
      </trkpt>
      <trkpt lat="50.2808" lon="5.08072">
        <ele>272.28748269444</ele>
        <time>2017-05-27T15:58:44Z</time>
      </trkpt>
      <trkpt lat="50.28104" lon="5.08098">
        <ele>273.02777459388</ele>
        <time>2017-05-27T15:58:48Z</time>
      </trkpt>
      <trkpt lat="50.28131" lon="5.08126">
        <ele>272.16820431129</ele>
        <time>2017-05-27T15:58:53Z</time>
      </trkpt>
      <trkpt lat="50.28154" lon="5.08146">
        <ele>271.50993963454</ele>
        <time>2017-05-27T15:58:57Z</time>
      </trkpt>
      <trkpt lat="50.28182" lon="5.08174">
        <ele>270.19956268031</ele>
        <time>2017-05-27T15:59:02Z</time>
      </trkpt>
      <trkpt lat="50.28204" lon="5.08198">
        <ele>269.4973314669</ele>
        <time>2017-05-27T15:59:06Z</time>
      </trkpt>
      <trkpt lat="50.28226" lon="5.08223">
        <ele>269.86957820611</ele>
        <time>2017-05-27T15:59:10Z</time>
      </trkpt>
      <trkpt lat="50.28253" lon="5.08252">
        <ele>270.50501605651</ele>
        <time>2017-05-27T15:59:15Z</time>
      </trkpt>
      <trkpt lat="50.28273" lon="5.08273">
        <ele>271.30219724228</ele>
        <time>2017-05-27T15:59:19Z</time>
      </trkpt>
      <trkpt lat="50.28298" lon="5.08298">
        <ele>271.98142607265</ele>
        <time>2017-05-27T15:59:24Z</time>
      </trkpt>
      <trkpt lat="50.28317" lon="5.08317">
        <ele>272.19436389225</ele>
        <time>2017-05-27T15:59:28Z</time>
      </trkpt>
      <trkpt lat="50.28336" lon="5.08334">
        <ele>272.56710008869</ele>
        <time>2017-05-27T15:59:32Z</time>
      </trkpt>
      <trkpt lat="50.28355" lon="5.08354">
        <ele>271.72707468492</ele>
        <time>2017-05-27T15:59:36Z</time>
      </trkpt>
      <trkpt lat="50.2838" lon="5.08377">
        <ele>270.25506929093</ele>
        <time>2017-05-27T15:59:41Z</time>
      </trkpt>
      <trkpt lat="50.284" lon="5.08397">
        <ele>270.76038363776</ele>
        <time>2017-05-27T15:59:45Z</time>
      </trkpt>
      <trkpt lat="50.2842" lon="5.08416">
        <ele>270.86892183774</ele>
        <time>2017-05-27T15:59:49Z</time>
      </trkpt>
      <trkpt lat="50.28447" lon="5.08443">
        <ele>270.16042876866</ele>
        <time>2017-05-27T15:59:54Z</time>
      </trkpt>
      <trkpt lat="50.2847" lon="5.08466">
        <ele>269.22333602808</ele>
        <time>2017-05-27T15:59:58Z</time>
      </trkpt>
      <trkpt lat="50.28495" lon="5.08491">
        <ele>267.6866700505</ele>
        <time>2017-05-27T16:00:02Z</time>
      </trkpt>
      <trkpt lat="50.2853" lon="5.08526">
        <ele>266.51252449442</ele>
        <time>2017-05-27T16:00:07Z</time>
      </trkpt>
      <trkpt lat="50.28568" lon="5.08564">
        <ele>264.60605483153</ele>
        <time>2017-05-27T16:00:12Z</time>
      </trkpt>
      <trkpt lat="50.28608" lon="5.08603">
        <ele>263.44259011355</ele>
        <time>2017-05-27T16:00:17Z</time>
      </trkpt>
      <trkpt lat="50.28639" lon="5.08634">
        <ele>262.89683122332</ele>
        <time>2017-05-27T16:00:21Z</time>
      </trkpt>
      <trkpt lat="50.28672" lon="5.08667">
        <ele>260.24104348929</ele>
        <time>2017-05-27T16:00:26Z</time>
      </trkpt>
      <trkpt lat="50.28704" lon="5.08698">
        <ele>260.79308718001</ele>
        <time>2017-05-27T16:00:31Z</time>
      </trkpt>
      <trkpt lat="50.28729" lon="5.08722">
        <ele>260.79744756805</ele>
        <time>2017-05-27T16:00:35Z</time>
      </trkpt>
      <trkpt lat="50.28762" lon="5.08755">
        <ele>257.50559517356</ele>
        <time>2017-05-27T16:00:40Z</time>
      </trkpt>
      <trkpt lat="50.28796" lon="5.08788">
        <ele>256.90264562035</ele>
        <time>2017-05-27T16:00:45Z</time>
      </trkpt>
      <trkpt lat="50.28824" lon="5.08815">
        <ele>256.34180406184</ele>
        <time>2017-05-27T16:00:49Z</time>
      </trkpt>
      <trkpt lat="50.2885" lon="5.08842">
        <ele>255.75757510897</ele>
        <time>2017-05-27T16:00:53Z</time>
      </trkpt>
      <trkpt lat="50.28877" lon="5.08872">
        <ele>254.26053384357</ele>
        <time>2017-05-27T16:00:58Z</time>
      </trkpt>
      <trkpt lat="50.28907" lon="5.08904">
        <ele>253.52951868617</ele>
        <time>2017-05-27T16:01:03Z</time>
      </trkpt>
      <trkpt lat="50.28933" lon="5.08933">
        <ele>252.98821915733</ele>
        <time>2017-05-27T16:01:07Z</time>
      </trkpt>
      <trkpt lat="50.28955" lon="5.08971">
        <ele>250.68194779347</ele>
        <time>2017-05-27T16:01:11Z</time>
      </trkpt>
      <trkpt lat="50.28975" lon="5.09015">
        <ele>248.10135481716</ele>
        <time>2017-05-27T16:01:15Z</time>
      </trkpt>
      <trkpt lat="50.28997" lon="5.09065">
        <ele>244.66279902109</ele>
        <time>2017-05-27T16:01:20Z</time>
      </trkpt>
      <trkpt lat="50.29014" lon="5.09101">
        <ele>242.14189087763</ele>
        <time>2017-05-27T16:01:24Z</time>
      </trkpt>
      <trkpt lat="50.29027" lon="5.09123">
        <ele>242.03927696479</ele>
        <time>2017-05-27T16:01:29Z</time>
      </trkpt>
      <trkpt lat="50.29045" lon="5.09116">
        <ele>240.99539768575</ele>
        <time>2017-05-27T16:01:34Z</time>
      </trkpt>
      <trkpt lat="50.29059" lon="5.09088">
        <ele>240.67797676043</ele>
        <time>2017-05-27T16:01:38Z</time>
      </trkpt>
      <trkpt lat="50.29086" lon="5.09062">
        <ele>240.87522932074</ele>
        <time>2017-05-27T16:01:43Z</time>
      </trkpt>
      <trkpt lat="50.29108" lon="5.09042">
        <ele>241.19352619448</ele>
        <time>2017-05-27T16:01:47Z</time>
      </trkpt>
      <trkpt lat="50.2913" lon="5.09021">
        <ele>241.48746836995</ele>
        <time>2017-05-27T16:01:51Z</time>
      </trkpt>
      <trkpt lat="50.29157" lon="5.08995">
        <ele>241.17692422295</ele>
        <time>2017-05-27T16:01:56Z</time>
      </trkpt>
      <trkpt lat="50.2918" lon="5.08976">
        <ele>240.4969216936</ele>
        <time>2017-05-27T16:02:00Z</time>
      </trkpt>
      <trkpt lat="50.2921" lon="5.08973">
        <ele>239.39500446893</ele>
        <time>2017-05-27T16:02:05Z</time>
      </trkpt>
      <trkpt lat="50.29233" lon="5.08973">
        <ele>240.22007217729</ele>
        <time>2017-05-27T16:02:09Z</time>
      </trkpt>
      <trkpt lat="50.29254" lon="5.08963">
        <ele>241.34336558903</ele>
        <time>2017-05-27T16:02:13Z</time>
      </trkpt>
      <trkpt lat="50.29274" lon="5.0895">
        <ele>243.86656167611</ele>
        <time>2017-05-27T16:02:18Z</time>
      </trkpt>
      <trkpt lat="50.29289" lon="5.08939">
        <ele>246.51375347477</ele>
        <time>2017-05-27T16:02:22Z</time>
      </trkpt>
      <trkpt lat="50.2931" lon="5.08938">
        <ele>248.36738272442</ele>
        <time>2017-05-27T16:02:27Z</time>
      </trkpt>
      <trkpt lat="50.29325" lon="5.08954">
        <ele>249.05903069374</ele>
        <time>2017-05-27T16:02:31Z</time>
      </trkpt>
      <trkpt lat="50.29339" lon="5.0897">
        <ele>249.27655480247</ele>
        <time>2017-05-27T16:02:35Z</time>
      </trkpt>
      <trkpt lat="50.29362" lon="5.08996">
        <ele>248.80197261141</ele>
        <time>2017-05-27T16:02:40Z</time>
      </trkpt>
      <trkpt lat="50.29381" lon="5.09017">
        <ele>248.40381402965</ele>
        <time>2017-05-27T16:02:44Z</time>
      </trkpt>
      <trkpt lat="50.29389" lon="5.09045">
        <ele>247.92468390478</ele>
        <time>2017-05-27T16:02:49Z</time>
      </trkpt>
      <trkpt lat="50.29384" lon="5.09054">
        <ele>247.85454460597</ele>
        <time>2017-05-27T16:02:53Z</time>
      </trkpt>
      <trkpt lat="50.29362" lon="5.09066">
        <ele>246.79417451065</ele>
        <time>2017-05-27T16:02:58Z</time>
      </trkpt>
      <trkpt lat="50.29335" lon="5.09073">
        <ele>243.99787637515</ele>
        <time>2017-05-27T16:03:02Z</time>
      </trkpt>
      <trkpt lat="50.29303" lon="5.09072">
        <ele>240.52413369452</ele>
        <time>2017-05-27T16:03:06Z</time>
      </trkpt>
      <trkpt lat="50.29274" lon="5.09074">
        <ele>238.51774007034</ele>
        <time>2017-05-27T16:03:10Z</time>
      </trkpt>
      <trkpt lat="50.29249" lon="5.09086">
        <ele>238.31886647972</ele>
        <time>2017-05-27T16:03:14Z</time>
      </trkpt>
      <trkpt lat="50.29228" lon="5.09103">
        <ele>238.60587922304</ele>
        <time>2017-05-27T16:03:18Z</time>
      </trkpt>
      <trkpt lat="50.29202" lon="5.0912">
        <ele>239.66386462325</ele>
        <time>2017-05-27T16:03:23Z</time>
      </trkpt>
      <trkpt lat="50.29183" lon="5.09132">
        <ele>240.29320438743</ele>
        <time>2017-05-27T16:03:27Z</time>
      </trkpt>
      <trkpt lat="50.29161" lon="5.0915">
        <ele>240.26954384698</ele>
        <time>2017-05-27T16:03:32Z</time>
      </trkpt>
      <trkpt lat="50.29142" lon="5.09163">
        <ele>241.54822392718</ele>
        <time>2017-05-27T16:03:36Z</time>
      </trkpt>
      <trkpt lat="50.29126" lon="5.09172">
        <ele>243.73913891973</ele>
        <time>2017-05-27T16:03:40Z</time>
      </trkpt>
      <trkpt lat="50.29099" lon="5.09192">
        <ele>245.39363017642</ele>
        <time>2017-05-27T16:03:45Z</time>
      </trkpt>
      <trkpt lat="50.29083" lon="5.09212">
        <ele>245.43192032602</ele>
        <time>2017-05-27T16:03:50Z</time>
      </trkpt>
      <trkpt lat="50.29075" lon="5.0923">
        <ele>245.66871571954</ele>
        <time>2017-05-27T16:03:55Z</time>
      </trkpt>
      <trkpt lat="50.29085" lon="5.09253">
        <ele>245.10820030205</ele>
        <time>2017-05-27T16:03:59Z</time>
      </trkpt>
      <trkpt lat="50.29098" lon="5.09281">
        <ele>244.02334310996</ele>
        <time>2017-05-27T16:04:03Z</time>
      </trkpt>
      <trkpt lat="50.29109" lon="5.09308">
        <ele>244.31524182934</ele>
        <time>2017-05-27T16:04:08Z</time>
      </trkpt>
      <trkpt lat="50.29128" lon="5.09331">
        <ele>244.12979891831</ele>
        <time>2017-05-27T16:04:13Z</time>
      </trkpt>
      <trkpt lat="50.29145" lon="5.09347">
        <ele>243.34040997993</ele>
        <time>2017-05-27T16:04:17Z</time>
      </trkpt>
      <trkpt lat="50.2916" lon="5.09376">
        <ele>239.45776090267</ele>
        <time>2017-05-27T16:04:22Z</time>
      </trkpt>
      <trkpt lat="50.29175" lon="5.09403">
        <ele>236.53596675248</ele>
        <time>2017-05-27T16:04:27Z</time>
      </trkpt>
      <trkpt lat="50.2919" lon="5.09424">
        <ele>234.8815607463</ele>
        <time>2017-05-27T16:04:31Z</time>
      </trkpt>
      <trkpt lat="50.29201" lon="5.09444">
        <ele>233.63087691743</ele>
        <time>2017-05-27T16:04:35Z</time>
      </trkpt>
      <trkpt lat="50.29213" lon="5.09468">
        <ele>230.26887493657</ele>
        <time>2017-05-27T16:04:39Z</time>
      </trkpt>
      <trkpt lat="50.29226" lon="5.09492">
        <ele>227.5246156045</ele>
        <time>2017-05-27T16:04:43Z</time>
      </trkpt>
      <trkpt lat="50.2924" lon="5.0952">
        <ele>230.68820142029</ele>
        <time>2017-05-27T16:04:48Z</time>
      </trkpt>
      <trkpt lat="50.29256" lon="5.09547">
        <ele>236.20854415217</ele>
        <time>2017-05-27T16:04:53Z</time>
      </trkpt>
      <trkpt lat="50.29272" lon="5.09566">
        <ele>242.43475746139</ele>
        <time>2017-05-27T16:04:57Z</time>
      </trkpt>
      <trkpt lat="50.29294" lon="5.09579">
        <ele>250.19383722584</ele>
        <time>2017-05-27T16:05:02Z</time>
      </trkpt>
      <trkpt lat="50.29302" lon="5.09584">
        <ele>250.99639072108</ele>
        <time>2017-05-27T16:05:06Z</time>
      </trkpt>
      <trkpt lat="50.29313" lon="5.09573">
        <ele>251.98642660372</ele>
        <time>2017-05-27T16:05:11Z</time>
      </trkpt>
      <trkpt lat="50.29328" lon="5.09549">
        <ele>255.59248119789</ele>
        <time>2017-05-27T16:05:16Z</time>
      </trkpt>
      <trkpt lat="50.29339" lon="5.09535">
        <ele>255.9849932954</ele>
        <time>2017-05-27T16:05:20Z</time>
      </trkpt>
      <trkpt lat="50.29351" lon="5.09519">
        <ele>257.27498683814</ele>
        <time>2017-05-27T16:05:24Z</time>
      </trkpt>
      <trkpt lat="50.29356" lon="5.09511">
        <ele>257.61858073413</ele>
        <time>2017-05-27T16:05:29Z</time>
      </trkpt>
      <trkpt lat="50.29367" lon="5.09511">
        <ele>257.64687770385</ele>
        <time>2017-05-27T16:05:33Z</time>
      </trkpt>
      <trkpt lat="50.29381" lon="5.09532">
        <ele>257.01503705725</ele>
        <time>2017-05-27T16:05:38Z</time>
      </trkpt>
      <trkpt lat="50.29394" lon="5.09553">
        <ele>256.70053128147</ele>
        <time>2017-05-27T16:05:43Z</time>
      </trkpt>
      <trkpt lat="50.29401" lon="5.0956">
        <ele>257.70202516467</ele>
        <time>2017-05-27T16:06:49Z</time>
      </trkpt>
      <trkpt lat="50.29401" lon="5.0956">
        <ele>257.70202516467</ele>
        <time>2017-05-27T16:06:49Z</time>
      </trkpt>
    </trkseg>
  </trk>
</gpx>